Time;durP1;ratioP1;P1;durP2;ratioP2;P2;SDS_P1;SDS_P2;PMS_P1;PMS_P2;Temp;Humidity;BMP_temperature;BMP_pressure;BME280_temperature;BME280_humidity;BME280_pressure;Samples;Min_cycle;Max_cycle;Signal;HPM_P1;HPM_P2
2023/10/10 00:08:43;;;;;;;1999.90;999.90;;;;;;;13.10;100.00;98375.59;18559348;31;20068;-59
2023/10/10 00:18:48;;;;;;;1999.90;999.90;;;;;;;13.09;100.00;98365.81;18559268;31;20382;-59
2023/10/10 00:28:56;;;;;;;1999.90;999.90;;;;;;;13.07;100.00;98343.56;18568073;31;20053;-59
2023/10/10 00:39:07;;;;;;;1999.90;999.90;;;;;;;12.99;100.00;98353.06;18587055;31;20041;-59
2023/10/10 00:49:14;;;;;;;1999.90;999.90;;;;;;;12.84;100.00;98367.41;18627997;31;20504;-59
2023/10/10 00:59:18;;;;;;;1999.90;999.90;;;;;;;12.75;100.00;98380.69;18634021;31;20070;-59
2023/10/10 01:09:33;;;;;;;1999.90;999.90;;;;;;;12.69;100.00;98389.91;18633673;31;20108;-59
2023/10/10 01:19:36;;;;;;;1999.90;999.90;;;;;;;12.56;100.00;98364.06;18633224;31;20349;-59
2023/10/10 01:29:41;;;;;;;1999.90;999.90;;;;;;;12.41;100.00;98356.69;18632047;31;20504;-59
2023/10/10 01:39:49;;;;;;;1999.90;999.90;;;;;;;12.44;100.00;98369.72;18616050;31;20075;-59
2023/10/10 01:49:58;;;;;;;1999.90;999.90;;;;;;;12.38;100.00;98359.94;18630696;31;20094;-59
2023/10/10 02:10:55;;;;;;;1999.90;999.90;;;;;;;12.14;100.00;98352.25;18489753;32;20072;-59
2023/10/10 02:21:06;;;;;;;1999.90;999.90;;;;;;;12.08;100.00;98331.59;18488866;32;20073;-59
2023/10/10 02:31:09;;;;;;;1999.90;999.90;;;;;;;11.97;100.00;98357.81;18476514;32;20087;-59
2023/10/10 02:51:22;;;;;;;1999.90;999.90;;;;;;;12.09;100.00;98349.50;18627176;31;20093;-59
2023/10/10 03:01:49;;;;;;;1999.90;999.90;;;;;;;12.07;100.00;98346.22;18626526;31;20115;-59
2023/10/10 03:12:03;;;;;;;1999.90;999.90;;;;;;;11.92;100.00;98351.53;18626123;31;20481;-59
2023/10/10 03:22:28;;;;;;;1999.90;999.90;;;;;;;11.90;100.00;98337.44;18625878;31;20100;-59
2023/10/10 03:32:33;;;;;;;1999.90;999.90;;;;;;;11.96;100.00;98336.41;18609972;31;20053;-59
2023/10/10 05:26:14;;;;;;;1999.90;999.90;;;;;;;11.05;100.00;98308.41;18626129;31;20052;-59
2023/10/10 05:36:18;;;;;;;1999.90;999.90;;;;;;;11.00;100.00;98311.84;18631750;31;20064;-59
2023/10/10 05:46:21;;;;;;;1999.90;999.90;;;;;;;10.85;100.00;98324.19;18617225;31;20122;-59
2023/10/10 05:56:29;;;;;;;1999.90;999.90;;;;;;;10.90;100.00;98333.41;18616149;31;20360;-59
2023/10/10 06:06:33;;;;;;;1999.90;999.90;;;;;;;10.92;100.00;98337.50;18615904;31;20087;-59
2023/10/10 06:16:36;;;;;;;1999.90;999.90;;;;;;;11.07;100.00;98333.28;18602172;31;20048;-59
2023/10/10 06:26:45;;;;;;;1999.90;999.90;;;;;;;11.25;100.00;98329.38;18628029;31;20073;-59
2023/10/10 06:36:54;;;;;;;1999.90;999.90;;;;;;;11.35;100.00;98338.41;18627703;31;20068;-59
2023/10/10 06:46:57;;;;;;;1999.90;999.90;;;;;;;11.59;100.00;98334.53;18627786;31;20061;-59
2023/10/10 07:07:05;;;;;;;1999.90;999.90;;;;;;;12.25;100.00;98346.84;18626227;31;20061;-59
2023/10/10 07:17:12;;;;;;;1999.90;999.90;;;;;;;12.50;100.00;98348.88;18626049;31;20044;-59
2023/10/10 07:27:18;;;;;;;1999.90;999.90;;;;;;;12.85;100.00;98344.63;18626301;31;20078;-59
2023/10/10 07:37:29;;;;;;;1999.90;999.90;;;;;;;13.25;100.00;98355.81;18634539;31;20344;-59
2023/10/10 07:47:32;;;;;;;1999.90;999.90;;;;;;;13.76;100.00;98358.56;18638662;31;20066;-59
2023/10/10 08:07:57;;;;;;;1999.90;999.90;;;;;;;14.68;100.00;98351.22;18630674;31;20068;-59
2023/10/10 08:18:00;;;;;;;1999.90;999.90;;;;;;;15.14;100.00;98363.72;18636519;31;20052;-59
2023/10/10 08:28:03;;;;;;;1999.90;999.90;;;;;;;15.39;100.00;98370.94;18621485;31;20075;-59
2023/10/10 08:38:06;;;;;;;1999.90;999.90;;;;;;;15.76;100.00;98378.50;18635225;31;20403;-59
2023/10/10 08:48:26;;;;;;;1999.90;999.90;;;;;;;16.04;100.00;98364.38;18620093;31;20056;-59
2023/10/10 08:58:31;;;;;;;1999.90;999.90;;;;;;;16.32;100.00;98370.06;18634187;31;20372;-60
2023/10/10 09:08:34;;;;;;;1999.90;999.90;;;;;;;16.56;100.00;98368.13;18634086;31;20068;-59
2023/10/10 09:18:37;;;;;;;1999.90;999.90;;;;;;;16.76;100.00;98367.06;18618772;31;20104;-59
2023/10/10 09:28:58;;;;;;;1999.90;999.90;;;;;;;17.32;100.00;98377.50;18632350;31;20076;-60
2023/10/10 09:39:35;;;;;;;1999.90;999.90;;;;;;;17.54;100.00;98376.87;18631595;31;20085;-58
2023/10/10 09:59:57;;;;;;;1999.90;999.90;;;;;;;18.33;100.00;98375.25;18623198;31;20436;-58
2023/10/10 10:10:52;;;;;;;1999.90;999.90;;;;;;;18.70;100.00;98387.91;18604319;31;20440;-57
2023/10/10 10:31:27;;;;;;;1999.90;999.90;;;;;;;19.01;100.00;98376.31;18627978;31;20098;-57
2023/10/10 10:41:42;;;;;;;1999.90;999.90;;;;;;;19.47;100.00;98380.75;18613250;31;20049;-57
2023/10/10 10:51:48;;;;;;;1999.90;999.90;;;;;;;19.67;100.00;98372.31;18620633;31;20109;-57
2023/10/10 11:01:59;;;;;;;1999.90;999.90;;;;;;;20.07;100.00;98370.47;18627044;31;20092;-57
2023/10/10 11:12:04;;;;;;;1999.90;999.90;;;;;;;20.21;100.00;98362.13;18626308;31;20096;-57
2023/10/10 11:23:10;;;;;;;1999.90;999.90;;;;;;;20.64;100.00;98339.47;18626073;31;20104;-57
2023/10/10 11:32:47;;;;;;;1999.90;999.90;;;;;;;21.12;100.00;98337.78;18614058;31;20093;-57
2023/10/10 11:42:50;;;;;;;1999.90;999.90;;;;;;;21.65;100.00;98324.81;18625606;31;20400;-58
2023/10/10 11:52:57;;;;;;;1999.90;999.90;;;;;;;21.89;100.00;98317.94;18610766;31;20053;-57
2023/10/10 12:02:59;;;;;;;1999.90;999.90;;;;;;;22.21;100.00;98309.41;18624661;31;20056;-58
2023/10/10 12:13:09;;;;;;;1999.90;999.90;;;;;;;22.70;100.00;98297.97;18610140;31;20058;-57
2023/10/10 12:23:11;;;;;;;1999.90;999.90;;;;;;;22.82;100.00;98296.06;18619498;31;20067;-58
2023/10/10 12:33:17;;;;;;;1999.90;999.90;;;;;;;22.91;100.00;98264.88;18635869;31;20470;-57
2023/10/10 12:43:24;;;;;;;1999.90;999.90;;;;;;;23.25;100.00;98265.75;18635228;31;20040;-57
2023/10/10 12:53:31;;;;;;;1999.90;999.90;;;;;;;24.21;100.00;98258.31;18634797;31;20057;-57
2023/10/10 13:03:34;;;;;;;1999.90;999.90;;;;;;;24.19;100.00;98255.91;18619129;31;20085;-58
2023/10/10 13:13:45;;;;;;;1999.90;999.90;;;;;;;24.04;100.00;98235.31;18619372;31;20075;-57
2023/10/10 13:23:52;;;;;;;1999.90;999.90;;;;;;;24.03;100.00;98237.25;18632713;31;20052;-57
2023/10/10 13:34:01;;;;;;;1999.90;999.90;;;;;;;23.85;100.00;98233.06;18610868;31;20083;-58
2023/10/10 13:44:04;;;;;;;1999.90;999.90;;;;;;;23.84;91.96;98236.97;18631329;31;20085;-58
2023/10/10 13:54:07;;;;;;;1999.90;999.90;;;;;;;23.53;79.93;98221.78;18616949;31;20084;-58
2023/10/10 14:04:23;;;;;;;1999.90;999.90;;;;;;;23.37;85.46;98204.28;18630133;31;20068;-57
2023/10/10 14:14:28;;;;;;;1999.90;999.90;;;;;;;23.38;66.78;98197.59;18629644;31;20483;-57
2023/10/10 14:24:30;;;;;;;1999.90;999.90;;;;;;;22.97;72.08;98198.16;18615402;31;20437;-57
2023/10/10 14:34:38;;;;;;;1999.90;999.90;;;;;;;22.47;79.37;98199.88;18628012;31;20065;-57
2023/10/10 14:44:41;;;;;;;1999.90;999.90;;;;;;;22.21;83.34;98199.22;18613870;31;20096;-57
2023/10/10 14:54:48;;;;;;;1999.90;999.90;;;;;;;22.06;89.30;98197.84;18627206;31;20087;-57
2023/10/10 15:04:51;;;;;;;1999.90;999.90;;;;;;;21.79;91.01;98198.00;18626770;31;20107;-57
2023/10/10 15:14:57;;;;;;;;;;;;;;;21.57;92.42;98206.50;18612513;31;20440;-57
2023/10/10 15:25:01;;;;;;;1999.90;999.90;;;;;;;21.25;100.00;98200.44;18619837;31;19958;-57
2023/10/10 15:35:07;;;;;;;1999.90;999.90;;;;;;;20.88;100.00;98191.78;18625376;31;20459;-57
2023/10/10 15:45:10;;;;;;;1999.90;999.90;;;;;;;20.55;100.00;98197.75;18610458;31;20083;-57
2023/10/10 15:55:15;;;;;;;1999.90;999.90;;;;;;;20.21;100.00;98197.38;18615207;31;20118;-57
2023/10/10 16:05:22;;;;;;;1999.90;999.90;;;;;;;19.79;100.00;98197.75;18637191;31;20405;-57
2023/10/10 16:15:25;;;;;;;1999.90;999.90;;;;;;;19.43;100.00;98196.00;18630370;31;20068;-57
2023/10/10 16:25:32;;;;;;;1999.90;999.90;;;;;;;19.02;100.00;98209.94;18622808;31;20060;-57
2023/10/10 16:35:34;;;;;;;1999.90;999.90;;;;;;;18.61;100.00;98195.28;18621170;31;20052;-57
2023/10/10 16:45:37;;;;;;;1999.90;999.90;;;;;;;18.23;100.00;98201.87;18620290;31;20076;-57
2023/10/10 16:55:43;;;;;;;1999.90;999.90;;;;;;;17.78;100.00;98204.44;18620435;31;20380;-57
2023/10/10 17:05:51;;;;;;;1999.90;999.90;;;;;;;17.41;100.00;98208.97;18619448;31;20376;-57
2023/10/10 17:16:00;;;;;;;1999.90;999.90;;;;;;;16.87;100.00;98212.06;18633384;31;20048;-57
2023/10/10 17:26:04;;;;;;;1999.90;999.90;;;;;;;16.56;100.00;98220.72;18632903;31;20083;-58
2023/10/10 17:36:07;;;;;;;1999.90;999.90;;;;;;;16.17;100.00;98230.00;18632270;31;20119;-57
2023/10/10 17:46:14;;;;;;;1999.90;999.90;;;;;;;15.75;100.00;98215.22;18616939;31;20072;-57
2023/10/10 17:56:17;;;;;;;1999.90;999.90;;;;;;;15.47;100.00;98225.87;18616996;31;20104;-57
2023/10/10 18:06:21;;;;;;;1999.90;999.90;;;;;;;15.29;100.00;98234.75;18623244;31;20071;-57
2023/10/10 18:16:24;;;;;;;1999.90;999.90;;;;;;;15.05;100.00;98235.53;18629376;31;20052;-57
2023/10/10 18:26:28;;;;;;;1999.90;999.90;;;;;;;14.93;100.00;98238.59;18628840;31;20121;-57
2023/10/10 18:36:36;;;;;;;1999.90;999.90;;;;;;;14.87;100.00;98239.75;18628425;31;20095;-57
2023/10/10 18:46:43;;;;;;;1999.90;999.90;;;;;;;14.81;100.00;98232.72;18614479;31;20066;-57
2023/10/10 18:56:49;;;;;;;1999.90;999.90;;;;;;;14.66;100.00;98237.19;18621326;31;20432;-57
2023/10/10 19:06:53;;;;;;;1999.90;999.90;;;;;;;14.41;100.00;98238.91;18605979;31;20076;-57
2023/10/10 19:16:56;;;;;;;1999.90;999.90;;;;;;;14.10;100.00;98240.19;18611951;31;20044;-57
2023/10/10 19:26:59;;;;;;;1999.90;999.90;;;;;;;13.95;100.00;98246.50;18625817;31;20052;-57
2023/10/10 19:37:02;;;;;;;1999.90;999.90;;;;;;;13.79;100.00;98245.75;18611214;31;20073;-57
2023/10/10 19:47:06;;;;;;;1999.90;999.90;;;;;;;13.71;100.00;98241.69;18625214;31;20049;-57
2023/10/10 19:57:12;;;;;;;1999.90;999.90;;;;;;;13.42;100.00;98244.22;18624839;31;20077;-57
2023/10/10 20:07:15;;;;;;;1999.90;999.90;;;;;;;13.19;100.00;98241.75;18624654;31;20069;-57
2023/10/10 20:17:18;;;;;;;1999.90;999.90;;;;;;;13.04;100.00;98236.34;18624814;31;20326;-59
2023/10/10 20:27:23;;;;;;;1999.90;999.90;;;;;;;12.83;100.00;98233.63;18624432;31;20458;-59
2023/10/10 20:37:34;;;;;;;1999.90;999.90;;;;;;;12.61;100.00;98233.88;18623641;31;20089;-59
2023/10/10 20:47:52;;;;;;;1999.90;999.90;;;;;;;12.32;100.00;98228.09;18628409;31;20095;-59
2023/10/10 20:57:57;;;;;;;1999.90;999.90;;;;;;;12.32;100.00;98228.09;18621061;31;20052;-59
2023/10/10 21:08:01;;;;;;;1999.90;999.90;;;;;;;12.18;100.00;98220.50;18633928;31;20052;-59
2023/10/10 21:18:07;;;;;;;1999.90;999.90;;;;;;;12.07;100.00;98223.44;18618973;31;20052;-59
2023/10/10 21:28:10;;;;;;;1999.90;999.90;;;;;;;11.81;100.00;98224.13;18632925;31;20044;-59
2023/10/10 21:38:13;;;;;;;1999.90;999.90;;;;;;;11.69;100.00;98226.25;18617563;31;20126;-59
2023/10/10 21:48:21;;;;;;;1999.90;999.90;;;;;;;11.49;100.00;98211.50;18591728;31;20052;-59
2023/10/10 21:58:38;;;;;;;1999.90;999.90;;;;;;;11.33;100.00;98223.31;18630014;31;20100;-59
2023/10/10 22:08:50;;;;;;;1999.90;999.90;;;;;;;11.18;100.00;98219.44;18629884;31;20052;-59
2023/10/10 22:18:53;;;;;;;1999.90;999.90;;;;;;;11.02;100.00;98215.00;18589206;31;20115;-59
2023/10/10 22:28:56;;;;;;;1999.90;999.90;;;;;;;10.94;100.00;98216.28;18628980;31;20480;-59
2023/10/10 22:39:06;;;;;;;1999.90;999.90;;;;;;;10.78;100.00;98203.72;18627819;31;20095;-59
2023/10/10 22:49:10;;;;;;;1999.90;999.90;;;;;;;10.68;100.00;98204.44;18614981;31;20079;-59
2023/10/10 22:59:15;;;;;;;1999.90;999.90;;;;;;;10.54;100.00;98205.94;18613227;31;20052;-59
2023/10/10 23:09:43;;;;;;;1999.90;999.90;;;;;;;10.48;100.00;98203.19;18626624;31;20044;-59
2023/10/10 23:20:12;;;;;;;1999.90;999.90;;;;;;;10.42;100.00;98190.69;18626138;31;20100;-59
2023/10/10 23:30:38;;;;;;;1999.90;999.90;;;;;;;10.34;100.00;98196.53;18618844;31;20067;-59
2023/10/10 23:40:44;;;;;;;1999.90;999.90;;;;;;;10.36;100.00;98193.59;18610726;31;20056;-59
2023/10/10 23:50:58;;;;;;;1999.90;999.90;;;;;;;10.25;100.00;98190.78;18611340;31;20124;-59
